Terminal Aerodrome Forecast
Issued by NWS

Home | Current Version | Previous Version | Text Only | Print | Product List | Glossary On
Versions: 1 2 3 4 5 6 7 8 9 10 11 12 13 14 15
000
FTUS46 KLOX 302300
TAFPRB
TAF
KPRB 302340Z 3100/3124 20012KT P6SM SCT150 BKN250
     FM310200 31011KT P6SM SCT150 BKN250
     FM310600 29007KT P6SM SCT150 BKN250
     FM310900 VRB03KT P6SM SCT250
     FM312100 27008KT P6SM SKC
     FM312300 21012KT P6SM SKC=

USA.gov is the U.S. government's official web portal to all federal, state and local government web resources and services.